Time;durP1;ratioP1;P1;durP2;ratioP2;P2;SDS_P1;SDS_P2;PMS_P1;PMS_P2;Temp;Humidity;BMP_temperature;BMP_pressure;BME280_temperature;BME280_humidity;BME280_pressure;Samples;Min_cycle;Max_cycle;Signal;HPM_P1;HPM_P2
2021/03/30 00:00:22;;;;;;;15.27;7.27;;;10.50;71.10;;;;;;5039842;28;20028;-71
2021/03/30 00:02:48;;;;;;;12.63;7.23;;;10.40;71.50;;;;;;5056338;28;20388;-71
2021/03/30 00:05:14;;;;;;;14.00;7.37;;;10.40;71.80;;;;;;5074162;28;20033;-71
2021/03/30 00:07:40;;;;;;;10.90;7.87;;;10.40;72.10;;;;;;5056390;28;20111;-72
2021/03/30 00:10:09;;;;;;;15.30;7.70;;;10.40;72.40;;;;;;5056654;28;20480;-72
2021/03/30 00:12:34;;;;;;;12.43;7.77;;;10.30;72.70;;;;;;5074539;28;20060;-71
2021/03/30 00:15:00;;;;;;;19.77;8.20;;;10.30;72.80;;;;;;5056433;28;20472;-72
2021/03/30 00:17:25;;;;;;;16.83;8.67;;;10.20;72.70;;;;;;5056539;28;20029;-72
2021/03/30 00:19:51;;;;;;;16.57;8.90;;;10.30;73.30;;;;;;5074231;28;20024;-72
2021/03/30 00:22:17;;;;;;;18.87;9.90;;;10.20;72.20;;;;;;5056765;28;20119;-72
2021/03/30 00:24:42;;;;;;;13.73;8.60;;;10.20;72.70;;;;;;5056391;28;20520;-72
2021/03/30 00:27:08;;;;;;;16.20;9.47;;;10.10;71.80;;;;;;5074076;28;20033;-72
2021/03/30 00:29:42;;;;;;;15.53;8.60;;;10.20;71.50;;;;;;5056265;28;20056;-72
2021/03/30 00:32:11;;;;;;;;;;;10.20;71.70;;;;;;5074195;28;20032;-72
2021/03/30 00:34:37;;;;;;;15.97;8.20;;;10.10;72.10;;;;;;5056349;28;20001;-72
2021/03/30 00:37:03;;;;;;;17.50;10.00;;;10.00;71.80;;;;;;5055947;28;20082;-72
2021/03/30 00:39:29;;;;;;;16.33;9.00;;;10.00;72.30;;;;;;5073934;28;20098;-71
2021/03/30 00:41:55;;;;;;;16.77;9.60;;;10.00;72.70;;;;;;5073847;28;20043;-72
2021/03/30 00:44:20;;;;;;;16.40;9.40;;;9.90;73.20;;;;;;5073749;28;20067;-72
2021/03/30 00:46:46;;;;;;;16.90;9.70;;;10.00;73.70;;;;;;5056028;28;20047;-72
2021/03/30 00:49:17;;;;;;;13.37;8.63;;;10.00;74.50;;;;;;5055630;28;20032;-72
2021/03/30 00:51:47;;;;;;;15.60;9.83;;;9.90;74.20;;;;;;5073503;28;20028;-72
2021/03/30 00:54:14;;;;;;;16.37;9.37;;;9.90;74.50;;;;;;5073565;28;20052;-73
2021/03/30 00:56:41;;;;;;;14.57;8.83;;;9.90;74.90;;;;;;5073367;28;20016;-72
2021/03/30 00:59:07;;;;;;;14.73;9.03;;;9.80;75.00;;;;;;5053311;28;20048;-77
2021/03/30 01:01:33;;;;;;;16.03;9.17;;;9.80;75.20;;;;;;5073477;28;20043;-77
2021/03/30 01:03:59;;;;;;;17.17;9.90;;;9.90;75.50;;;;;;5055782;28;20026;-77
2021/03/30 01:06:25;;;;;;;16.20;8.97;;;9.80;75.80;;;;;;5089469;28;20032;-77
2021/03/30 01:09:19;;;;;;;17.37;9.83;;;9.70;76.00;;;;;;5093755;28;20103;-77
2021/03/30 01:11:59;;;;;;;20.87;10.10;;;9.70;76.10;;;;;;5093358;28;20028;-77
2021/03/30 01:14:50;;;;;;;17.80;9.43;;;9.70;75.60;;;;;;5075756;28;20027;-77
2021/03/30 01:17:15;;;;;;;16.00;9.77;;;9.60;75.20;;;;;;5093930;28;20460;-77
2021/03/30 01:20:06;;;;;;;18.20;9.33;;;9.50;74.80;;;;;;5093905;28;20089;-77
2021/03/30 01:23:06;;;;;;;15.10;9.07;;;9.50;74.60;;;;;;5093990;28;20017;-76
2021/03/30 01:25:36;;;;;;;17.07;9.20;;;9.40;74.30;;;;;;5093788;28;20099;-77
2021/03/30 01:28:20;;;;;;;15.90;9.77;;;9.40;74.40;;;;;;5093726;28;20501;-76
2021/03/30 01:30:47;;;;;;;17.93;9.40;;;9.30;74.60;;;;;;5093279;28;20028;-77
2021/03/30 01:33:18;;;;;;;15.83;9.77;;;9.20;74.50;;;;;;5058644;28;20387;-77
2021/03/30 01:35:46;;;;;;;17.90;10.03;;;9.10;74.40;;;;;;5093735;28;20020;-77
2021/03/30 01:38:13;;;;;;;13.77;8.97;;;9.10;74.40;;;;;;5093322;28;20494;-77
2021/03/30 01:40:41;;;;;;;24.23;9.90;;;9.10;74.50;;;;;;5075381;28;20028;-77
2021/03/30 01:43:07;;;;;;;15.57;9.27;;;9.10;74.60;;;;;;5075328;28;20367;-72
2021/03/30 01:45:34;;;;;;;16.17;9.73;;;9.10;75.10;;;;;;5078121;28;20036;-72
2021/03/30 01:48:01;;;;;;;17.23;8.97;;;9.10;75.30;;;;;;5079169;28;20038;-72
2021/03/30 01:50:27;;;;;;;17.13;9.97;;;9.00;75.70;;;;;;5079235;28;20039;-72
2021/03/30 01:52:54;;;;;;;21.20;11.20;;;9.00;75.90;;;;;;5097465;28;20032;-72
2021/03/30 01:55:22;;;;;;;15.50;8.67;;;9.00;75.80;;;;;;5097382;28;20032;-72
2021/03/30 01:57:54;;;;;;;16.47;10.13;;;9.00;76.40;;;;;;5097151;28;20033;-72
2021/03/30 02:00:22;;;;;;;16.50;10.00;;;9.00;75.90;;;;;;5097033;28;20107;-72
2021/03/30 02:02:49;;;;;;;19.17;10.90;;;8.90;75.70;;;;;;5079328;28;20028;-72
2021/03/30 02:05:16;;;;;;;19.10;10.13;;;8.90;75.80;;;;;;5097044;28;20060;-72
2021/03/30 02:07:43;;;;;;;15.77;9.57;;;8.80;75.70;;;;;;5097303;28;20031;-72
2021/03/30 02:10:21;;;;;;;21.20;11.03;;;8.90;75.70;;;;;;5096877;28;20071;-72
2021/03/30 02:12:47;;;;;;;15.47;9.63;;;8.80;75.60;;;;;;5096941;28;20031;-72
2021/03/30 02:15:13;;;;;;;16.20;10.00;;;8.80;75.60;;;;;;5096694;28;20395;-72
2021/03/30 02:17:55;;;;;;;18.17;9.90;;;8.80;75.90;;;;;;5078780;28;20032;-72
2021/03/30 02:20:27;;;;;;;16.07;10.10;;;8.70;76.30;;;;;;5096712;28;20440;-72
2021/03/30 02:23:14;;;;;;;16.67;10.33;;;8.70;76.40;;;;;;5078662;28;20119;-72
2021/03/30 02:25:45;;;;;;;17.23;10.40;;;8.70;76.70;;;;;;5096542;28;20476;-72
2021/03/30 02:28:15;;;;;;;15.20;9.17;;;8.60;76.50;;;;;;5096637;28;20031;-72
2021/03/30 02:30:42;;;;;;;18.67;10.90;;;8.40;76.40;;;;;;5096558;28;20531;-72
2021/03/30 02:33:13;;;;;;;24.17;11.67;;;8.50;76.50;;;;;;5096514;28;20028;-72
2021/03/30 02:35:39;;;;;;;16.50;9.77;;;8.50;76.30;;;;;;5096387;28;20024;-72
2021/03/30 02:38:07;;;;;;;16.63;9.57;;;8.40;76.30;;;;;;5076974;28;20028;-72
2021/03/30 02:40:34;;;;;;;16.23;10.20;;;8.40;76.60;;;;;;5077996;28;20081;-73
2021/03/30 02:43:01;;;;;;;14.37;9.17;;;8.20;76.90;;;;;;5078454;28;20376;-71
2021/03/30 02:45:29;;;;;;;16.50;9.90;;;8.20;77.10;;;;;;5095866;28;20028;-72
2021/03/30 02:48:00;;;;;;;18.57;10.13;;;8.10;77.20;;;;;;5096462;28;20032;-72
2021/03/30 02:50:27;;;;;;;19.27;10.57;;;8.10;77.40;;;;;;5077959;28;20024;-72
2021/03/30 02:52:57;;;;;;;18.53;11.13;;;8.10;77.50;;;;;;5077943;28;20059;-71
2021/03/30 02:55:23;;;;;;;18.37;10.60;;;8.10;77.60;;;;;;5073932;28;20036;-72
2021/03/30 02:57:50;;;;;;;20.07;10.40;;;8.10;78.40;;;;;;5095635;28;20153;-71
2021/03/30 03:00:17;;;;;;;18.60;10.73;;;8.00;77.80;;;;;;5093791;28;20024;-72
2021/03/30 03:02:44;;;;;;;19.73;11.60;;;8.00;77.90;;;;;;5095733;28;20020;-72
2021/03/30 03:05:11;;;;;;;20.33;12.93;;;8.00;78.00;;;;;;5078073;28;20427;-71
2021/03/30 03:07:38;;;;;;;21.27;11.90;;;8.00;78.00;;;;;;5095988;28;20414;-72
2021/03/30 03:10:09;;;;;;;17.83;10.73;;;7.90;78.10;;;;;;5095696;28;20047;-72
2021/03/30 03:12:41;;;;;;;20.43;11.60;;;7.90;78.30;;;;;;5095952;28;20111;-71
2021/03/30 03:15:08;;;;;;;21.30;11.50;;;8.10;78.50;;;;;;5077718;28;20031;-72
2021/03/30 03:17:35;;;;;;;20.07;12.03;;;7.90;78.50;;;;;;5095518;28;20032;-72
2021/03/30 03:20:04;;;;;;;21.70;12.23;;;8.00;78.50;;;;;;5077786;28;20353;-71
2021/03/30 03:22:30;;;;;;;19.70;12.73;;;7.90;78.50;;;;;;5095518;28;20479;-72
2021/03/30 03:24:56;;;;;;;21.33;12.37;;;7.80;79.10;;;;;;5077236;28;20126;-76
2021/03/30 03:27:21;;;;;;;21.53;13.10;;;7.80;78.50;;;;;;5077272;28;20041;-76
2021/03/30 03:29:47;;;;;;;21.70;12.53;;;7.80;78.60;;;;;;5095608;28;20533;-76
2021/03/30 03:32:13;;;;;;;21.80;11.73;;;7.70;78.50;;;;;;5077757;28;20035;-76
2021/03/30 03:34:39;;;;;;;24.13;13.80;;;7.70;78.60;;;;;;5077563;28;20028;-77
2021/03/30 03:37:05;;;;;;;20.77;11.93;;;7.70;78.90;;;;;;5076892;28;20135;-77
2021/03/30 03:39:31;;;;;;;21.97;12.77;;;7.70;79.10;;;;;;5095033;28;20028;-77
2021/03/30 03:41:57;;;;;;;22.00;11.73;;;7.70;79.30;;;;;;5095059;28;20028;-76
2021/03/30 03:44:27;;;;;;;21.47;11.77;;;7.70;80.20;;;;;;5094862;28;20050;-76
2021/03/30 03:46:53;;;;;;;22.37;12.27;;;7.70;80.40;;;;;;5076733;28;20369;-77
2021/03/30 03:49:19;;;;;;;19.07;11.17;;;7.60;80.10;;;;;;5043346;28;20039;-77
2021/03/30 03:51:50;;;;;;;18.97;11.73;;;7.70;80.40;;;;;;5093710;28;20060;-77
2021/03/30 03:54:19;;;;;;;20.40;11.37;;;7.60;80.60;;;;;;5089383;28;20017;-77
2021/03/30 03:56:47;;;;;;;22.53;13.00;;;7.80;80.80;;;;;;5074730;28;20025;-77
2021/03/30 03:59:20;;;;;;;22.90;12.27;;;7.60;80.80;;;;;;5074226;28;20051;-76
2021/03/30 04:02:22;;;;;;;26.77;12.53;;;7.50;80.90;;;;;;5074502;28;20107;-76
2021/03/30 04:05:03;;;;;;;19.37;12.00;;;7.50;81.10;;;;;;5074848;28;20089;-77
2021/03/30 04:07:37;;;;;;;20.03;11.60;;;7.50;81.20;;;;;;5056019;28;20059;-76
2021/03/30 04:10:05;;;;;;;21.13;11.55;;;7.40;81.20;;;;;;5074428;28;20107;-77
2021/03/30 04:12:32;;;;;;;25.13;12.73;;;7.40;81.40;;;;;;5073986;28;20730;-76
2021/03/30 04:14:58;;;;;;;22.77;12.47;;;7.40;81.50;;;;;;5074233;28;20012;-76
2021/03/30 04:17:24;;;;;;;23.33;13.10;;;7.40;81.70;;;;;;5056451;28;20025;-77
2021/03/30 04:19:50;;;;;;;20.63;11.90;;;7.30;81.60;;;;;;5039681;28;20027;-77
2021/03/30 04:22:16;;;;;;;22.50;13.47;;;7.30;81.70;;;;;;5074220;28;20048;-76
2021/03/30 04:24:45;;;;;;;21.20;12.33;;;7.30;81.80;;;;;;5056248;28;20107;-77
2021/03/30 04:27:12;;;;;;;25.70;13.17;;;7.30;82.10;;;;;;5073976;28;20029;-77
2021/03/30 04:29:40;;;;;;;22.47;12.53;;;7.20;82.00;;;;;;5055867;28;20451;-77
2021/03/30 04:32:07;;;;;;;21.53;13.00;;;7.20;82.30;;;;;;5073756;28;20108;-76
2021/03/30 04:34:32;;;;;;;21.43;12.63;;;7.20;82.40;;;;;;5055999;28;20082;-76
2021/03/30 04:36:58;;;;;;;23.93;13.17;;;7.20;82.60;;;;;;5074071;28;20403;-78
2021/03/30 04:39:24;;;;;;;26.37;11.93;;;7.20;82.70;;;;;;5056145;28;20028;-77
2021/03/30 04:41:49;;;;;;;23.13;12.43;;;7.10;82.50;;;;;;5073433;28;20040;-77
2021/03/30 04:44:15;;;;;;;26.37;13.67;;;7.10;82.20;;;;;;5073586;28;20029;-77
2021/03/30 04:46:41;;;;;;;24.10;12.73;;;7.10;82.00;;;;;;5073698;28;20054;-77
2021/03/30 04:49:06;;;;;;;27.80;14.33;;;7.10;82.60;;;;;;5055563;28;20098;-77
2021/03/30 04:51:32;;;;;;;22.93;12.30;;;7.00;81.90;;;;;;5073289;28;20074;-77
2021/03/30 04:53:58;;;;;;;28.13;13.63;;;7.00;81.90;;;;;;5074014;28;20541;-76
2021/03/30 04:56:23;;;;;;;27.57;13.90;;;7.00;82.10;;;;;;5073444;28;20031;-76
2021/03/30 04:58:49;;;;;;;24.17;12.90;;;7.00;82.80;;;;;;5055544;28;20102;-76
2021/03/30 05:01:14;;;;;;;28.23;13.00;;;6.90;82.20;;;;;;5081480;28;20035;-76
2021/03/30 05:03:40;;;;;;;25.77;14.23;;;6.90;82.30;;;;;;5093267;28;20448;-77
2021/03/30 05:06:06;;;;;;;23.67;13.50;;;6.90;82.50;;;;;;5092840;28;20027;-76
2021/03/30 05:08:32;;;;;;;27.17;14.10;;;6.90;82.50;;;;;;5074677;28;20426;-76
2021/03/30 05:10:59;;;;;;;26.33;14.03;;;6.90;82.70;;;;;;5093237;28;20035;-76
2021/03/30 05:13:24;;;;;;;25.17;13.57;;;6.80;82.70;;;;;;5093665;28;20024;-76
2021/03/30 05:15:50;;;;;;;26.33;13.23;;;6.80;82.90;;;;;;5093031;28;20454;-76
2021/03/30 05:18:15;;;;;;;24.80;13.53;;;6.80;83.00;;;;;;5074606;28;20472;-77
2021/03/30 05:20:41;;;;;;;34.90;14.93;;;6.80;83.20;;;;;;5092812;28;20024;-77
2021/03/30 05:23:07;;;;;;;27.97;14.57;;;6.70;83.30;;;;;;5042105;28;20052;-76
2021/03/30 05:25:32;;;;;;;26.67;14.00;;;6.70;83.50;;;;;;5075351;28;20032;-76
2021/03/30 05:27:59;;;;;;;29.20;14.30;;;6.70;83.60;;;;;;5093527;28;20029;-76
2021/03/30 05:30:25;;;;;;;28.37;14.93;;;6.70;83.80;;;;;;5075427;28;20024;-77
2021/03/30 05:32:50;;;;;;;25.80;13.63;;;6.70;83.90;;;;;;5075535;28;20039;-76
2021/03/30 05:35:16;;;;;;;22.97;12.93;;;6.70;84.10;;;;;;5093347;28;20024;-77
2021/03/30 05:37:42;;;;;;;25.07;13.97;;;6.70;84.10;;;;;;5093712;28;20079;-76
2021/03/30 05:40:10;;;;;;;29.90;14.57;;;6.80;84.10;;;;;;5093405;28;20038;-72
2021/03/30 05:42:37;;;;;;;28.17;14.53;;;6.80;84.10;;;;;;5093085;28;20032;-72
2021/03/30 05:45:03;;;;;;;30.43;14.17;;;6.80;84.00;;;;;;5092676;28;20543;-72
2021/03/30 05:47:29;;;;;;;26.83;13.67;;;6.80;84.00;;;;;;5093388;28;20526;-72
2021/03/30 05:49:55;;;;;;;26.20;13.70;;;6.80;84.00;;;;;;5092651;28;21376;-72
2021/03/30 05:52:32;;;;;;;27.63;14.80;;;6.80;84.70;;;;;;5092285;28;20088;-72
2021/03/30 05:54:58;;;;;;;26.33;14.77;;;6.90;84.40;;;;;;5090461;28;20039;-72
2021/03/30 05:57:28;;;;;;;28.53;14.90;;;6.90;84.40;;;;;;5092674;28;20028;-72
2021/03/30 05:59:59;;;;;;;29.47;14.63;;;6.90;84.50;;;;;;5092468;28;20044;-73
2021/03/30 06:02:34;;;;;;;25.80;13.93;;;6.90;84.70;;;;;;5092796;28;20032;-72
2021/03/30 06:05:01;;;;;;;30.43;15.33;;;6.90;84.70;;;;;;5068412;28;20016;-73
2021/03/30 06:07:30;;;;;;;28.93;15.37;;;7.00;84.80;;;;;;5054777;28;20388;-72
2021/03/30 06:09:58;;;;;;;28.57;14.33;;;7.00;84.90;;;;;;5037295;28;20024;-72
2021/03/30 06:12:24;;;;;;;33.30;15.60;;;7.00;84.80;;;;;;5072267;28;20028;-72
2021/03/30 06:14:49;;;;;;;33.83;14.43;;;7.10;84.80;;;;;;5054748;28;20059;-71
2021/03/30 06:17:16;;;;;;;31.27;13.80;;;7.10;84.70;;;;;;5054834;28;20468;-72
2021/03/30 06:19:48;;;;;;;34.93;16.00;;;7.10;84.60;;;;;;5072324;28;20057;-71
2021/03/30 06:22:14;;;;;;;34.23;16.27;;;7.20;84.70;;;;;;5054658;28;20028;-72
2021/03/30 06:24:39;;;;;;;35.83;15.20;;;7.20;84.70;;;;;;5072199;28;20094;-71
2021/03/30 06:27:05;;;;;;;32.40;15.03;;;7.20;84.80;;;;;;5072417;28;20029;-73
2021/03/30 06:29:36;;;;;;;32.03;16.03;;;7.20;84.80;;;;;;5057646;28;20020;-72
2021/03/30 06:32:09;;;;;;;32.93;15.00;;;7.30;85.00;;;;;;5076066;28;20394;-73
2021/03/30 06:34:36;;;;;;;30.63;15.90;;;7.40;85.00;;;;;;5077456;28;20044;-74
2021/03/30 06:37:22;;;;;;;29.07;15.83;;;7.50;85.10;;;;;;5095866;28;20027;-73
2021/03/30 06:39:47;;;;;;;31.60;14.97;;;7.50;85.10;;;;;;5076490;28;20024;-72
2021/03/30 06:42:33;;;;;;;27.93;15.57;;;7.50;85.10;;;;;;5078306;28;20054;-72
2021/03/30 06:44:59;;;;;;;37.60;17.00;;;7.60;85.20;;;;;;5095702;28;20031;-72
2021/03/30 06:47:25;;;;;;;34.70;17.00;;;7.60;85.20;;;;;;5077873;28;20032;-72
2021/03/30 06:50:02;;;;;;;36.73;17.27;;;7.70;85.30;;;;;;5078285;28;20039;-72
2021/03/30 06:52:34;;;;;;;33.07;16.70;;;7.80;85.30;;;;;;5095512;28;20379;-72
2021/03/30 06:55:05;;;;;;;32.43;17.23;;;7.80;85.30;;;;;;5095987;28;20024;-72
2021/03/30 06:57:33;;;;;;;34.13;17.03;;;7.90;85.30;;;;;;5096297;28;20364;-72
2021/03/30 07:00:02;;;;;;;36.57;18.73;;;8.00;85.20;;;;;;5095820;28;20119;-72
2021/03/30 07:02:29;;;;;;;30.77;17.00;;;8.00;85.00;;;;;;5095733;28;20081;-73
2021/03/30 07:04:55;;;;;;;36.33;16.63;;;8.10;84.90;;;;;;5077472;28;20028;-72
2021/03/30 07:07:23;;;;;;;33.90;18.20;;;8.20;84.80;;;;;;5095656;28;20461;-72
2021/03/30 07:09:52;;;;;;;34.73;17.87;;;8.30;84.60;;;;;;5077661;28;20054;-72
2021/03/30 07:12:22;;;;;;;35.37;17.83;;;8.40;84.40;;;;;;5077830;28;20114;-72
2021/03/30 07:14:48;;;;;;;36.70;19.07;;;8.40;84.10;;;;;;5095956;28;20464;-72
2021/03/30 07:17:21;;;;;;;34.77;19.17;;;8.60;83.90;;;;;;5095577;28;20031;-72
2021/03/30 07:19:48;;;;;;;34.45;18.52;;;8.60;83.60;;;;;;5077126;28;20018;-72
2021/03/30 07:22:17;;;;;;;36.63;18.10;;;8.70;83.40;;;;;;5060651;28;20032;-77
2021/03/30 07:24:56;;;;;;;36.97;19.10;;;8.70;83.10;;;;;;5095184;28;20464;-77
2021/03/30 07:27:27;;;;;;;35.77;20.40;;;8.90;83.00;;;;;;5095774;28;20067;-77
2021/03/30 07:29:55;;;;;;;34.37;18.23;;;8.90;82.70;;;;;;5095666;28;20120;-77
2021/03/30 07:32:24;;;;;;;41.53;19.33;;;9.20;82.60;;;;;;5073633;28;20387;-77
2021/03/30 07:35:06;;;;;;;34.37;18.30;;;9.10;82.30;;;;;;5074855;28;20047;-77
2021/03/30 07:37:59;;;;;;;36.50;20.00;;;9.20;82.10;;;;;;5074663;28;20468;-77
2021/03/30 07:40:25;;;;;;;37.90;19.57;;;9.20;81.90;;;;;;5056825;28;20017;-77
2021/03/30 07:42:53;;;;;;;39.50;20.43;;;9.30;81.70;;;;;;5073771;28;20055;-77
2021/03/30 07:45:22;;;;;;;38.40;19.53;;;9.40;81.60;;;;;;5074685;28;20029;-77
2021/03/30 07:47:49;;;;;;;36.37;19.67;;;9.50;81.40;;;;;;5074537;28;20537;-77
2021/03/30 07:50:20;;;;;;;38.67;20.10;;;9.60;81.30;;;;;;5087328;28;20111;-77
2021/03/30 07:52:52;;;;;;;36.47;19.93;;;9.60;81.10;;;;;;5094694;28;20093;-77
2021/03/30 07:55:19;;;;;;;39.43;21.33;;;9.70;80.90;;;;;;5076472;28;20423;-77
2021/03/30 07:57:55;;;;;;;40.03;20.00;;;9.80;80.80;;;;;;5094405;28;20030;-77
2021/03/30 08:00:33;;;;;;;41.50;21.67;;;10.00;80.70;;;;;;5094236;28;20048;-77
2021/03/30 08:03:05;;;;;;;41.90;20.93;;;10.10;80.50;;;;;;5094436;28;20028;-77
2021/03/30 08:05:31;;;;;;;41.90;21.93;;;10.20;81.00;;;;;;5076449;28;20020;-77
2021/03/30 08:07:58;;;;;;;36.43;20.27;;;10.30;80.30;;;;;;5094421;28;20088;-77
2021/03/30 08:10:31;;;;;;;39.30;21.20;;;10.30;80.20;;;;;;5076725;28;20032;-77
2021/03/30 08:13:28;;;;;;;37.00;20.98;;;10.50;80.10;;;;;;5094384;28;20024;-77
2021/03/30 08:15:59;;;;;;;38.47;20.33;;;10.60;80.00;;;;;;5094415;28;20410;-77
2021/03/30 08:18:27;;;;;;;40.20;21.27;;;10.70;79.80;;;;;;5076608;28;20016;-77
2021/03/30 08:20:56;;;;;;;41.70;21.23;;;10.90;79.90;;;;;;5076225;28;20043;-77
2021/03/30 08:23:22;;;;;;;41.57;20.83;;;10.90;79.90;;;;;;5076249;28;20026;-78
2021/03/30 08:25:52;;;;;;;38.57;20.87;;;11.10;79.80;;;;;;5094133;28;20460;-77
2021/03/30 08:28:48;;;;;;;41.57;21.87;;;11.20;79.60;;;;;;5094151;28;20566;-77
2021/03/30 08:31:16;;;;;;;41.17;22.20;;;11.40;79.40;;;;;;5094010;28;20039;-77
2021/03/30 08:33:42;;;;;;;37.20;21.10;;;11.40;79.10;;;;;;5094423;28;20024;-78
2021/03/30 08:36:21;;;;;;;41.60;20.47;;;11.50;78.80;;;;;;5076140;28;20436;-72
2021/03/30 08:38:49;;;;;;;39.83;21.77;;;11.70;78.70;;;;;;5094101;28;20570;-72
2021/03/30 08:41:42;;;;;;;41.80;22.80;;;11.80;78.50;;;;;;5059336;28;20032;-71
2021/03/30 08:44:31;;;;;;;35.00;19.25;;;12.00;78.30;;;;;;5093789;28;20024;-72
2021/03/30 08:46:57;;;;;;;35.33;20.27;;;12.10;78.10;;;;;;5093937;28;20023;-72
2021/03/30 08:49:39;;;;;;;34.20;20.73;;;12.20;77.90;;;;;;5058904;28;20024;-72
2021/03/30 08:52:10;;;;;;;34.53;20.27;;;12.30;77.60;;;;;;5075733;28;20177;-72
2021/03/30 08:54:57;;;;;;;39.95;21.05;;;12.50;77.40;;;;;;5075643;28;20016;-72
2021/03/30 08:57:27;;;;;;;48.22;22.52;;;12.60;77.00;;;;;;5093906;28;20440;-72
2021/03/30 08:59:53;;;;;;;43.22;21.38;;;12.70;76.20;;;;;;5093557;28;20413;-72
2021/03/30 09:02:26;;;;;;;41.05;21.17;;;12.80;75.40;;;;;;5093818;28;20035;-72
2021/03/30 09:04:53;;;;;;;35.30;19.63;;;12.90;74.90;;;;;;5075635;28;20052;-73
2021/03/30 09:07:19;;;;;;;37.45;21.00;;;13.00;74.30;;;;;;5058000;28;20023;-73
2021/03/30 09:09:46;;;;;;;38.88;20.58;;;13.10;73.70;;;;;;5075604;28;20020;-73
2021/03/30 09:12:21;;;;;;;37.22;20.83;;;13.20;73.30;;;;;;5075572;28;20032;-72
2021/03/30 09:15:01;;;;;;;34.63;18.13;;;13.30;73.00;;;;;;5075393;28;20475;-72
2021/03/30 09:17:28;;;;;;;32.58;17.80;;;13.40;72.60;;;;;;5075182;28;20020;-73
2021/03/30 09:19:55;;;;;;;35.15;19.77;;;13.50;72.40;;;;;;5075413;28;20020;-72
2021/03/30 09:22:28;;;;;;;34.72;19.40;;;13.60;72.00;;;;;;5093355;28;20028;-72
2021/03/30 09:27:32;;;;;;;35.08;20.02;;;13.90;71.40;;;;;;5092610;28;20032;-73
2021/03/30 09:29:59;;;;;;;34.10;20.38;;;14.00;70.90;;;;;;5092755;28;20502;-72
2021/03/30 09:32:28;;;;;;;32.53;18.45;;;14.10;70.30;;;;;;5090378;28;20447;-73
2021/03/30 09:35:12;;;;;;;38.47;19.55;;;14.20;69.20;;;;;;5092676;28;20043;-72
2021/03/30 09:37:48;;;;;;;33.73;19.17;;;14.40;68.60;;;;;;5072901;28;20016;-73
2021/03/30 09:40:22;;;;;;;28.58;17.83;;;14.50;68.20;;;;;;5074546;28;20281;-73
2021/03/30 09:42:49;;;;;;;34.42;18.90;;;14.60;67.50;;;;;;5092982;28;20032;-72
2021/03/30 09:45:21;;;;;;;31.25;17.00;;;14.80;66.80;;;;;;5092234;28;20033;-73
2021/03/30 09:47:47;;;;;;;30.90;17.42;;;14.90;66.00;;;;;;5090326;28;20036;-77
2021/03/30 09:50:16;;;;;;;31.80;16.98;;;15.00;65.20;;;;;;5092938;28;20036;-77
2021/03/30 09:52:43;;;;;;;30.08;17.83;;;15.20;64.30;;;;;;5075912;28;20039;-76
2021/03/30 09:55:09;;;;;;;34.53;17.05;;;15.30;64.00;;;;;;5093447;28;20456;-77
2021/03/30 09:57:35;;;;;;;33.42;18.15;;;15.50;64.00;;;;;;5074699;28;20040;-76
2021/03/30 10:00:01;;;;;;;31.95;16.92;;;15.50;63.40;;;;;;5090594;28;20056;-77
2021/03/30 10:02:34;;;;;;;30.80;17.30;;;15.70;62.90;;;;;;5072086;28;20066;-77
2021/03/30 10:05:05;;;;;;;33.35;16.85;;;15.80;62.40;;;;;;5093121;28;20032;-77
2021/03/30 10:07:35;;;;;;;29.67;17.60;;;15.90;61.60;;;;;;5078841;28;20067;-77
2021/03/30 10:10:07;;;;;;;30.67;17.70;;;16.10;60.30;;;;;;5097104;28;20052;-77
2021/03/30 10:12:36;;;;;;;29.10;15.95;;;16.40;60.10;;;;;;5096953;28;20055;-78
2021/03/30 10:15:04;;;;;;;27.80;16.08;;;16.70;59.10;;;;;;5096740;28;20038;-77
2021/03/30 10:17:31;;;;;;;30.75;17.00;;;17.10;58.80;;;;;;5096410;28;20021;-76
2021/03/30 10:19:58;;;;;;;27.92;15.32;;;17.60;58.20;;;;;;5096917;28;20023;-78
2021/03/30 10:22:26;;;;;;;28.52;15.25;;;18.10;57.60;;;;;;5096973;28;20032;-77
2021/03/30 10:25:10;;;;;;;22.30;13.25;;;18.80;56.30;;;;;;5078470;28;20052;-78
2021/03/30 10:27:46;;;;;;;22.35;14.38;;;19.60;55.00;;;;;;5096498;28;20032;-76
2021/03/30 10:30:12;;;;;;;25.10;15.10;;;20.50;54.30;;;;;;5096665;28;20371;-77
2021/03/30 10:33:01;;;;;;;24.33;14.43;;;21.50;52.90;;;;;;5078315;28;20480;-77
2021/03/30 10:35:26;;;;;;;22.67;13.55;;;22.40;51.00;;;;;;5078712;28;20051;-78
2021/03/30 10:37:53;;;;;;;20.25;13.93;;;23.20;49.50;;;;;;5096598;28;20063;-78
2021/03/30 10:40:19;;;;;;;19.42;13.88;;;24.00;46.90;;;;;;5096243;28;20020;-77
2021/03/30 10:42:46;;;;;;;20.58;13.43;;;24.60;45.60;;;;;;5078750;28;20460;-78
2021/03/30 10:45:13;;;;;;;16.75;12.57;;;25.30;44.40;;;;;;5077904;28;20066;-77
2021/03/30 10:47:41;;;;;;;15.40;11.98;;;25.90;43.30;;;;;;5096417;28;20375;-77
2021/03/30 10:50:12;;;;;;;19.73;12.65;;;26.50;41.70;;;;;;5061551;28;20024;-77
2021/03/30 10:52:38;;;;;;;17.13;12.38;;;27.00;40.80;;;;;;5077989;28;20032;-78
2021/03/30 10:55:11;;;;;;;17.77;12.40;;;27.70;39.50;;;;;;5077958;28;20471;-78
2021/03/30 10:57:38;;;;;;;17.40;11.80;;;28.20;36.80;;;;;;5077779;28;20024;-77
2021/03/30 11:00:07;;;;;;;18.73;13.88;;;28.70;36.30;;;;;;5096230;28;20024;-77
2021/03/30 11:02:33;;;;;;;14.25;10.68;;;29.30;35.30;;;;;;5078290;28;20036;-78
2021/03/30 11:04:59;;;;;;;16.65;11.52;;;29.60;35.20;;;;;;5095678;28;20028;-78
2021/03/30 11:07:25;;;;;;;15.75;11.52;;;30.00;35.00;;;;;;5077692;28;20028;-78
2021/03/30 11:09:50;;;;;;;16.40;11.95;;;30.00;34.30;;;;;;5096229;28;20036;-78
2021/03/30 11:12:16;;;;;;;16.40;11.48;;;29.90;34.00;;;;;;5095945;28;20036;-77
2021/03/30 11:14:42;;;;;;;16.45;13.10;;;29.70;33.00;;;;;;5078044;28;20100;-77
2021/03/30 11:17:08;;;;;;;18.13;12.73;;;29.50;32.60;;;;;;5076412;28;20491;-77
2021/03/30 11:19:34;;;;;;;17.90;12.45;;;29.30;32.40;;;;;;5095854;28;20028;-77
2021/03/30 11:21:59;;;;;;;19.25;14.18;;;29.10;32.30;;;;;;5077757;28;20418;-77
2021/03/30 11:24:28;;;;;;;20.20;13.13;;;28.90;32.10;;;;;;5094671;28;20032;-79
2021/03/30 11:26:55;;;;;;;21.70;15.02;;;28.80;32.00;;;;;;5095248;28;20036;-78
2021/03/30 11:30:27;;;;;;;22.25;15.10;;;28.70;31.70;;;;;;5095424;28;20028;-78
2021/03/30 11:35:01;;;;;;;18.30;14.13;;;28.40;31.70;;;;;;5079382;28;20226;-77
2021/03/30 11:39:57;;;;;;;23.00;15.82;;;28.30;31.50;;;;;;5095322;28;20274;-78
2021/03/30 11:42:24;;;;;;;21.75;15.43;;;28.30;31.20;;;;;;5094845;28;20039;-77
2021/03/30 11:44:50;;;;;;;21.45;15.07;;;28.30;31.20;;;;;;5094868;28;20054;-78
2021/03/30 11:47:16;;;;;;;19.38;14.38;;;28.30;31.20;;;;;;5076952;28;20032;-77
2021/03/30 11:49:41;;;;;;;21.25;14.07;;;28.30;31.00;;;;;;5094708;28;20051;-78
2021/03/30 11:52:07;;;;;;;21.15;14.68;;;28.30;30.90;;;;;;5094907;28;20026;-77
2021/03/30 11:54:34;;;;;;;21.00;14.75;;;28.30;30.90;;;;;;5076885;28;20028;-77
2021/03/30 11:57:00;;;;;;;18.75;13.43;;;28.40;30.80;;;;;;5076499;28;20039;-78
2021/03/30 11:59:26;;;;;;;18.02;12.75;;;28.50;30.60;;;;;;5076404;28;20021;-78
2021/03/30 12:01:53;;;;;;;19.30;12.73;;;28.70;30.30;;;;;;5094572;28;20184;-77
2021/03/30 12:04:18;;;;;;;19.77;12.25;;;28.80;30.00;;;;;;5094599;28;20039;-78
2021/03/30 12:06:44;;;;;;;19.83;12.43;;;29.00;29.80;;;;;;5094492;28;20031;-78
2021/03/30 12:09:10;;;;;;;15.93;11.15;;;29.10;29.50;;;;;;5094403;28;20116;-78
2021/03/30 12:11:35;;;;;;;17.85;11.00;;;29.30;29.40;;;;;;5042959;28;20472;-78
2021/03/30 12:14:02;;;;;;;17.48;11.90;;;29.40;29.20;;;;;;5056047;28;20025;-78
2021/03/30 12:16:28;;;;;;;16.95;11.60;;;29.70;29.00;;;;;;5083715;28;20072;-77
2021/03/30 12:18:55;;;;;;;16.98;10.93;;;29.80;28.70;;;;;;5094069;28;20084;-78
2021/03/30 12:21:21;;;;;;;15.45;10.65;;;29.90;28.30;;;;;;5076151;28;20036;-80
2021/03/30 12:23:47;;;;;;;15.63;10.77;;;30.10;28.00;;;;;;5094289;28;20028;-79
2021/03/30 12:26:13;;;;;;;16.75;12.40;;;30.10;27.50;;;;;;5093932;28;20035;-78
2021/03/30 12:28:39;;;;;;;16.75;11.25;;;30.20;27.50;;;;;;5093400;28;20439;-78
2021/03/30 12:31:05;;;;;;;17.83;12.50;;;30.20;27.50;;;;;;5075462;28;20040;-78
2021/03/30 12:33:31;;;;;;;17.17;12.15;;;30.30;27.50;;;;;;5093676;28;20111;-78
2021/03/30 12:35:56;;;;;;;17.48;11.57;;;30.40;27.50;;;;;;5075661;28;20034;-79
2021/03/30 12:38:22;;;;;;;20.00;12.90;;;30.60;27.60;;;;;;5074548;28;20043;-79
2021/03/30 12:40:48;;;;;;;19.05;14.02;;;30.70;27.70;;;;;;5072664;28;20058;-79
2021/03/30 12:43:14;;;;;;;21.85;14.70;;;30.80;27.80;;;;;;5073294;28;20108;-78
2021/03/30 12:45:40;;;;;;;20.00;14.32;;;30.80;27.90;;;;;;5055258;28;20039;-78
2021/03/30 12:48:06;;;;;;;20.08;14.73;;;30.80;28.00;;;;;;5055316;28;20032;-78
2021/03/30 12:50:33;;;;;;;19.42;13.75;;;30.80;28.10;;;;;;5073212;28;20420;-77